createdAt,value
2023-04-01T06:57:07.391Z,11.96
2023-04-01T07:10:53.905Z,12.30
2023-04-01T07:13:46.621Z,12.28
2023-04-01T07:17:35.414Z,12.32
2023-04-01T07:21:57.484Z,12.51
2023-04-01T07:35:25.157Z,12.53
2023-04-01T07:38:30.848Z,12.39
2023-04-01T10:47:39.943Z,12.33
2023-04-01T10:50:36.367Z,12.26
2023-04-01T10:54:18.011Z,12.49
2023-04-01T10:57:59.388Z,12.66
2023-04-01T11:01:42.973Z,13.31
2023-04-01T11:05:24.664Z,13.76
2023-04-01T11:09:13.098Z,13.33
2023-04-01T11:11:39.862Z,13.34
2023-04-01T11:16:51.881Z,13.39
2023-04-01T11:19:26.309Z,13.63
2023-04-01T11:22:17.520Z,13.98
2023-04-01T11:25:05.190Z,13.72
2023-04-01T11:28:00.251Z,13.92
2023-04-01T11:30:49.570Z,13.15
2023-04-01T11:33:44.690Z,13.56
2023-04-01T11:36:36.415Z,14.24
2023-04-01T11:39:37.050Z,14.59
2023-04-01T11:42:49.151Z,15.56
2023-04-01T11:45:25.957Z,16.40
2023-04-01T11:48:35.130Z,16.69
2023-04-01T11:51:34.779Z,17.43
2023-04-01T11:54:43.160Z,17.42
2023-04-01T11:57:55.094Z,17.62
2023-04-01T12:05:16.820Z,15.55
2023-04-01T12:07:55.981Z,14.65
2023-04-01T12:10:30.211Z,14.66
2023-04-01T12:13:16.691Z,14.52
2023-04-01T12:16:06.484Z,14.08
2023-04-01T12:18:47.676Z,13.41
2023-04-01T12:21:34.665Z,13.19
2023-04-01T12:24:19.653Z,13.75
2023-04-01T12:27:18.733Z,14.29
2023-04-01T12:30:28.457Z,15.24
2023-04-01T12:33:17.307Z,16.32
2023-04-01T12:36:09.691Z,17.01
2023-04-01T12:39:28.619Z,17.38
2023-04-01T12:54:12.641Z,18.27
2023-04-01T12:57:24.928Z,17.95
2023-04-01T13:01:20.026Z,17.52
2023-04-01T13:04:10.308Z,17.27
2023-04-01T13:06:42.115Z,16.70
2023-04-01T13:09:54.743Z,16.27
2023-04-01T13:12:31.311Z,16.02
2023-04-01T13:15:06.578Z,16.29
2023-04-01T13:17:46.602Z,16.42
2023-04-01T13:20:40.158Z,16.16
2023-04-01T13:23:25.922Z,15.81
2023-04-01T13:26:22.236Z,15.65
2023-04-01T13:29:21.007Z,15.65
2023-04-01T13:32:04.561Z,15.75
2023-04-01T13:52:07.481Z,15.12
2023-04-01T13:56:08.045Z,14.26
2023-04-01T14:01:09.958Z,13.94
2023-04-01T14:05:14.287Z,13.88
2023-04-01T14:20:06.818Z,13.96
2023-04-01T14:23:00.497Z,13.73
2023-04-01T14:25:55.200Z,13.73
2023-04-01T14:28:40.524Z,13.70
2023-04-01T14:31:41.515Z,13.55
2023-04-01T15:00:32.569Z,13.05
2023-04-01T15:06:35.486Z,12.73
2023-04-01T15:09:22.231Z,12.65
2023-04-01T15:12:04.637Z,12.50
2023-04-01T15:16:13.185Z,12.18
2023-04-01T15:20:13.715Z,11.79
2023-04-01T15:22:52.564Z,11.71
2023-04-01T15:25:29.846Z,11.70
2023-04-01T15:28:07.127Z,11.68
2023-04-01T15:30:52.251Z,11.62
2023-04-01T15:33:51.107Z,11.49
2023-04-01T15:37:30.089Z,11.20
2023-04-01T15:40:22.060Z,11.24
2023-04-01T15:43:06.522Z,11.35
2023-04-01T15:46:09.588Z,11.42
2023-04-01T15:49:03.314Z,11.42
2023-04-01T15:52:25.268Z,11.53
2023-04-01T15:55:47.001Z,11.29
2023-04-01T15:58:41.635Z,11.18
2023-04-01T16:01:36.406Z,11.33
2023-04-01T16:05:13.173Z,11.37
2023-04-01T16:09:00.275Z,11.31
2023-04-01T16:11:52.388Z,11.16
2023-04-01T16:14:49.790Z,11.16
2023-04-01T16:17:32.864Z,11.34
2023-04-01T16:20:29.224Z,11.33
2023-04-01T16:23:04.494Z,11.35
2023-04-01T16:28:32.670Z,11.15
2023-04-01T16:31:13.328Z,10.91
2023-04-01T16:33:51.239Z,10.84
2023-04-01T16:36:44.872Z,10.81
2023-04-01T16:39:31.325Z,10.79
2023-04-01T16:42:43.618Z,10.77
2023-04-01T16:46:13.834Z,10.46
2023-04-01T16:49:13.085Z,10.32
2023-04-01T16:52:05.149Z,10.31
2023-04-01T16:54:51.952Z,10.37
2023-04-01T16:57:49.367Z,10.35
2023-04-01T17:00:23.664Z,10.31
2023-04-01T17:02:59.184Z,10.35
2023-04-01T17:05:36.592Z,10.41
2023-04-01T17:08:18.527Z,10.47
2023-04-01T17:10:56.972Z,10.47
2023-04-01T17:14:06.515Z,10.48
2023-04-01T17:17:02.914Z,10.42
2023-04-01T17:19:43.253Z,10.37
2023-04-01T17:22:45.104Z,10.44
2023-04-01T17:25:37.220Z,10.44
2023-04-01T17:28:11.446Z,10.44
2023-04-01T17:31:07.023Z,10.49
2023-04-01T17:34:14.098Z,10.45
2023-04-01T17:38:07.060Z,10.30
2023-04-01T17:40:39.928Z,10.20
2023-04-01T17:43:30.264Z,10.29
2023-04-01T17:46:04.896Z,10.31
2023-04-01T17:49:06.827Z,10.29
2023-04-01T17:51:46.390Z,10.26
2023-04-01T18:05:24.410Z,10.48
2023-04-01T18:08:13.040Z,10.32
2023-04-01T18:11:19.452Z,10.35
2023-04-01T18:14:15.212Z,10.36
2023-04-01T18:17:14.359Z,10.42
2023-04-01T18:20:03.532Z,10.37
2023-04-01T18:22:50.051Z,10.38
2023-04-01T18:25:18.431Z,10.29
2023-04-01T18:28:31.724Z,10.28
2023-04-01T18:31:03.114Z,10.22
2023-04-01T18:34:02.429Z,10.28
2023-04-01T18:37:04.921Z,10.31
2023-04-01T18:39:48.332Z,10.26
2023-04-01T18:43:23.057Z,10.28
2023-04-01T18:46:06.913Z,10.16
2023-04-01T18:48:52.837Z,10.21
2023-04-01T18:51:37.558Z,10.18
2023-04-01T18:54:41.671Z,10.14
2023-04-01T18:57:16.137Z,10.10
2023-04-01T18:59:55.142Z,10.08
2023-04-01T19:02:33.560Z,10.07
2023-04-01T19:05:32.815Z,10.08
2023-04-01T19:08:33.849Z,10.06
2023-04-01T19:11:05.542Z,9.95
2023-04-01T19:13:39.814Z,9.95
2023-04-01T19:16:44.953Z,9.97
2023-04-01T19:19:38.968Z,9.89
2023-04-01T19:23:09.224Z,9.87
2023-04-01T19:25:48.874Z,9.82
2023-04-01T19:28:51.666Z,9.78
2023-04-01T19:31:40.404Z,9.83
2023-04-01T19:34:46.524Z,9.82
2023-04-01T19:37:28.864Z,9.86
2023-04-01T19:40:03.315Z,9.96
2023-04-01T19:42:58.914Z,10.01
2023-04-01T19:45:56.923Z,9.93
2023-04-01T19:48:49.949Z,9.84
2023-04-01T19:51:32.251Z,9.83
2023-04-01T19:54:22.985Z,9.84
2023-04-01T19:57:07.744Z,9.83
2023-04-01T19:59:42.311Z,9.83
2023-04-01T20:02:10.447Z,9.83
2023-04-01T20:04:44.306Z,9.77
2023-04-01T20:07:26.022Z,9.68
2023-04-01T20:10:16.317Z,9.67
2023-04-01T20:12:57.297Z,9.65
2023-04-01T20:15:36.947Z,9.63
2023-04-01T20:18:19.155Z,9.55
2023-04-01T20:21:01.743Z,9.52
2023-04-01T20:24:47.778Z,9.50
2023-04-01T20:27:23.130Z,9.43
2023-04-01T20:30:12.894Z,9.52
2023-04-01T20:33:14.700Z,9.44
2023-04-01T20:36:07.186Z,9.44
2023-04-01T20:38:48.047Z,9.41
2023-04-01T20:41:27.542Z,9.38
2023-04-01T20:44:15.419Z,9.34
2023-04-01T20:47:02.866Z,9.29
2023-04-01T20:49:40.265Z,9.28
2023-04-01T20:52:14.242Z,9.26
2023-04-01T20:55:10.083Z,9.29
2023-04-01T20:57:45.648Z,9.35
2023-04-01T21:00:42.071Z,9.43
2023-04-01T21:03:39.402Z,9.34
2023-04-01T21:06:36.564Z,9.36
2023-04-01T21:09:19.594Z,9.33
2023-04-01T21:12:11.960Z,9.37
2023-04-01T21:15:28.033Z,9.41
2023-04-01T21:18:18.814Z,9.36
2023-04-01T21:21:12.066Z,9.24
2023-04-01T21:24:01.269Z,9.23
2023-04-01T21:26:56.400Z,9.29
2023-04-01T21:29:52.775Z,9.35
2023-04-01T21:32:39.356Z,9.30
2023-04-01T21:35:45.128Z,9.36
2023-04-01T21:38:54.482Z,9.33
2023-04-01T21:41:48.653Z,9.34
2023-04-01T21:44:31.226Z,9.37
2023-04-01T21:47:18.122Z,9.33
2023-04-01T21:50:17.912Z,9.31
2023-04-01T21:53:20.126Z,9.29
2023-04-01T21:56:26.852Z,9.26
2023-04-01T21:59:28.634Z,9.19
2023-04-01T22:02:15.526Z,9.11
2023-04-01T22:05:11.162Z,9.12
2023-04-01T22:08:13.861Z,9.08
2023-04-01T22:10:50.032Z,9.04
2023-04-01T22:13:30.510Z,9.11
2023-04-01T22:16:22.618Z,9.14
2023-04-01T22:19:01.576Z,9.05
2023-04-01T22:22:10.121Z,9.00
2023-04-01T22:24:52.621Z,8.87
2023-04-01T22:27:53.583Z,8.92
2023-04-01T22:30:25.748Z,8.88
2023-04-01T22:33:01.381Z,8.88
2023-04-01T22:35:29.424Z,8.92
2023-04-01T22:42:25.263Z,8.57
2023-04-01T22:45:01.688Z,8.62
2023-04-01T22:47:41.886Z,8.73
2023-04-01T22:50:22.056Z,8.74
2023-04-01T22:52:59.183Z,8.73
2023-04-01T22:55:34.116Z,8.63
2023-04-01T23:01:50.778Z,8.50
2023-04-01T23:04:24.721Z,8.50
2023-04-01T23:07:01.869Z,8.63
2023-04-01T23:09:36.479Z,8.73
2023-04-01T23:12:12.194Z,8.78
2023-04-01T23:14:56.418Z,8.84
2023-04-01T23:17:36.380Z,8.74
2023-04-01T23:20:42.195Z,8.64
2023-04-01T23:23:32.386Z,8.47
2023-04-01T23:28:52.160Z,8.45
2023-04-01T23:31:36.862Z,8.35
2023-04-01T23:34:21.949Z,8.39
2023-04-01T23:43:16.669Z,8.28
2023-04-01T23:45:45.323Z,8.24
2023-04-01T23:48:17.418Z,8.32
2023-04-01T23:50:46.926Z,8.33
2023-04-01T23:53:24.273Z,8.28
2023-04-01T23:55:53.580Z,8.30
2023-04-01T23:58:45.108Z,8.34
